Time;durP1;ratioP1;P1;durP2;ratioP2;P2;SDS_P1;SDS_P2;PMS_P1;PMS_P2;Temp;Humidity;BMP_temperature;BMP_pressure;BME280_temperature;BME280_humidity;BME280_pressure;Samples;Min_cycle;Max_cycle;Signal;HPM_P1;HPM_P2
2023/12/23 00:02:23;;;;;;;6.35;1.70;;;;;;;;;;5020183;28;95453;-82
2023/12/23 00:04:50;;;;;;;5.75;1.50;;;;;;;;;;5020303;28;92259;-81
2023/12/23 00:07:16;;;;;;;6.82;1.60;;;;;;;;;;5022021;28;92215;-82
2023/12/23 00:09:43;;;;;;;6.53;1.58;;;;;;;;;;5020874;28;94510;-81
2023/12/23 00:12:09;;;;;;;5.72;1.50;;;;;;;;;;5021450;28;92413;-81
2023/12/23 00:14:36;;;;;;;5.35;1.42;;;;;;;;;;5020270;28;92425;-81
2023/12/23 00:17:03;;;;;;;10.32;2.05;;;;;;;;;;5019331;28;95135;-81
2023/12/23 00:19:30;;;;;;;5.32;1.75;;;;;;;;;;5024388;27;92069;-81
2023/12/23 00:21:56;;;;;;;7.05;1.65;;;;;;;;;;5020529;28;92286;-81
2023/12/23 00:24:24;;;;;;;6.07;1.40;;;;;;;;;;5003194;28;92010;-82
2023/12/23 00:26:51;;;;;;;7.75;1.50;;;;;;;;;;5013970;28;92393;-82
2023/12/23 00:29:17;;;;;;;5.95;1.58;;;;;;;;;;5021580;28;93407;-81
2023/12/23 00:31:44;;;;;;;7.68;1.50;;;;;;;;;;5020104;28;92102;-81
2023/12/23 00:34:11;;;;;;;12.02;1.80;;;;;;;;;;5002534;28;94745;-81
2023/12/23 00:36:38;;;;;;;6.57;1.70;;;;;;;;;;5021656;28;93046;-81
2023/12/23 00:39:05;;;;;;;7.38;1.60;;;;;;;;;;5017573;28;92434;-81
2023/12/23 00:41:31;;;;;;;9.57;1.73;;;;;;;;;;5013827;28;94626;-81
2023/12/23 00:43:58;;;;;;;6.38;1.92;;;;;;;;;;5021380;27;93026;-80
2023/12/23 00:46:24;;;;;;;7.25;1.63;;;;;;;;;;5020788;27;92368;-81
2023/12/23 00:48:51;;;;;;;5.25;1.40;;;;;;;;;;5038241;27;92332;-81
2023/12/23 00:51:18;;;;;;;6.57;1.60;;;;;;;;;;5023828;28;92453;-80
2023/12/23 00:53:44;;;;;;;5.43;1.40;;;;;;;;;;5023290;28;93126;-80
2023/12/23 00:56:18;;;;;;;5.50;1.50;;;;;;;;;;4988205;27;95869;-81
2023/12/23 00:58:44;;;;;;;5.47;1.60;;;;;;;;;;4987384;28;91360;-82
2023/12/23 01:01:11;;;;;;;4.88;1.55;;;;;;;;;;4986932;28;94217;-81
2023/12/23 01:03:37;;;;;;;6.20;1.48;;;;;;;;;;5006490;28;95187;-81
2023/12/23 01:06:04;;;;;;;6.72;1.60;;;;;;;;;;4984468;27;95206;-82
2023/12/23 01:08:31;;;;;;;6.90;1.52;;;;;;;;;;5001194;27;92971;-82
2023/12/23 01:10:57;;;;;;;6.90;1.77;;;;;;;;;;4992129;28;95475;-81
2023/12/23 01:13:24;;;;;;;4.18;1.42;;;;;;;;;;5003506;28;94489;-82
2023/12/23 01:15:51;;;;;;;6.75;1.60;;;;;;;;;;5004174;28;92859;-82
2023/12/23 01:18:19;;;;;;;6.18;1.67;;;;;;;;;;5002941;28;92151;-82
2023/12/23 01:20:46;;;;;;;5.70;1.58;;;;;;;;;;5004969;28;92821;-82
2023/12/23 01:23:12;;;;;;;5.38;1.52;;;;;;;;;;5014893;28;93674;-82
2023/12/23 01:25:39;;;;;;;6.03;1.65;;;;;;;;;;5020087;28;92322;-82
2023/12/23 01:28:06;;;;;;;7.25;2.00;;;;;;;;;;5035541;28;95317;-82
2023/12/23 01:30:35;;;;;;;5.47;1.83;;;;;;;;;;5018619;28;94892;-82
2023/12/23 01:33:02;;;;;;;6.55;2.00;;;;;;;;;;5002487;28;100427;-82
2023/12/23 01:35:29;;;;;;;5.57;1.70;;;;;;;;;;5000749;28;95610;-81
2023/12/23 01:37:55;;;;;;;6.38;2.05;;;;;;;;;;5002630;28;92218;-82
2023/12/23 01:40:25;;;;;;;6.95;1.95;;;;;;;;;;4998263;28;95090;-81
2023/12/23 01:42:52;;;;;;;6.72;2.05;;;;;;;;;;5015369;28;94690;-81
2023/12/23 01:45:19;;;;;;;8.63;2.17;;;;;;;;;;5022289;28;92441;-81
2023/12/23 01:47:47;;;;;;;7.55;2.10;;;;;;;;;;5002928;28;91409;-81
2023/12/23 01:50:15;;;;;;;9.73;2.05;;;;;;;;;;5000969;27;92154;-81
2023/12/23 01:52:41;;;;;;;6.60;2.13;;;;;;;;;;5002050;28;95617;-79
2023/12/23 01:55:08;;;;;;;8.10;2.22;;;;;;;;;;5000210;28;95177;-81
2023/12/23 01:57:35;;;;;;;9.48;2.17;;;;;;;;;;5002138;28;92406;-81
2023/12/23 02:00:02;;;;;;;6.13;2.08;;;;;;;;;;5018446;28;93279;-81
2023/12/23 02:02:38;;;;;;;8.07;2.10;;;;;;;;;;5001797;28;97421;-81
2023/12/23 02:05:06;;;;;;;6.18;1.73;;;;;;;;;;4984913;28;93398;-81
2023/12/23 02:07:34;;;;;;;6.53;1.80;;;;;;;;;;5018167;28;92413;-81
2023/12/23 02:10:01;;;;;;;6.97;1.98;;;;;;;;;;5021187;28;92361;-81
2023/12/23 02:12:37;;;;;;;6.35;1.92;;;;;;;;;;5005932;28;99035;-81
2023/12/23 02:15:09;;;;;;;9.07;2.38;;;;;;;;;;5021569;28;95321;-80
2023/12/23 02:17:40;;;;;;;7.82;2.00;;;;;;;;;;5005241;28;92461;-81
2023/12/23 02:20:07;;;;;;;6.63;1.73;;;;;;;;;;5019330;28;95104;-81
2023/12/23 02:22:34;;;;;;;7.95;2.10;;;;;;;;;;5005355;28;95355;-80
2023/12/23 02:25:01;;;;;;;7.57;1.90;;;;;;;;;;5004910;28;92438;-80
2023/12/23 02:27:33;;;;;;;7.72;2.00;;;;;;;;;;5010003;28;95231;-81
2023/12/23 02:30:00;;;;;;;6.50;1.88;;;;;;;;;;5020489;28;95736;-81
2023/12/23 02:32:27;;;;;;;5.40;1.70;;;;;;;;;;5006101;28;92843;-81
2023/12/23 02:34:54;;;;;;;6.45;1.90;;;;;;;;;;5004495;28;95639;-81
2023/12/23 02:37:21;;;;;;;5.40;1.58;;;;;;;;;;5022428;28;91382;-81
2023/12/23 02:39:48;;;;;;;5.75;1.70;;;;;;;;;;5007362;28;94579;-81
2023/12/23 02:42:14;;;;;;;6.95;1.70;;;;;;;;;;4984586;28;95507;-80
2023/12/23 02:44:41;;;;;;;7.20;1.90;;;;;;;;;;4999411;28;94637;-81
2023/12/23 02:47:07;;;;;;;7.47;1.70;;;;;;;;;;5002783;28;94785;-81
2023/12/23 02:49:34;;;;;;;5.78;1.73;;;;;;;;;;5039938;27;94933;-80
2023/12/23 02:52:00;;;;;;;6.25;1.60;;;;;;;;;;5023923;28;92154;-80
2023/12/23 02:54:27;;;;;;;4.95;1.70;;;;;;;;;;5020113;28;94988;-79
2023/12/23 02:56:53;;;;;;;5.07;1.38;;;;;;;;;;5021108;28;92649;-80
2023/12/23 02:59:20;;;;;;;6.07;1.70;;;;;;;;;;5022413;27;92584;-79
2023/12/23 03:01:48;;;;;;;4.43;1.40;;;;;;;;;;5023265;28;92880;-80
2023/12/23 03:04:15;;;;;;;5.85;1.60;;;;;;;;;;5001862;27;92601;-80
2023/12/23 03:06:41;;;;;;;6.32;1.42;;;;;;;;;;5002795;28;92786;-80
2023/12/23 03:09:08;;;;;;;4.38;1.40;;;;;;;;;;4982467;28;97772;-81
2023/12/23 03:11:36;;;;;;;7.03;1.50;;;;;;;;;;5000679;28;92103;-82
2023/12/23 03:14:03;;;;;;;5.88;1.50;;;;;;;;;;5005139;28;92489;-81
2023/12/23 03:16:34;;;;;;;5.47;1.45;;;;;;;;;;4990249;28;92246;-82
2023/12/23 03:19:00;;;;;;;7.20;1.60;;;;;;;;;;4985276;28;95040;-82
2023/12/23 03:21:27;;;;;;;6.40;1.45;;;;;;;;;;5002095;28;95175;-81
2023/12/23 03:23:54;;;;;;;7.97;1.60;;;;;;;;;;5026126;28;92370;-80
2023/12/23 03:26:20;;;;;;;5.68;1.50;;;;;;;;;;5019179;28;92464;-81
2023/12/23 03:28:47;;;;;;;4.57;1.35;;;;;;;;;;5002591;28;92642;-80
2023/12/23 03:31:13;;;;;;;6.28;1.27;;;;;;;;;;4987473;28;92235;-81
2023/12/23 03:33:40;;;;;;;4.20;1.30;;;;;;;;;;4983291;28;94776;-80
2023/12/23 03:36:07;;;;;;;5.00;1.50;;;;;;;;;;5011519;28;92228;-82
2023/12/23 03:38:33;;;;;;;6.20;1.63;;;;;;;;;;4986679;28;92613;-80
2023/12/23 03:41:00;;;;;;;6.40;1.30;;;;;;;;;;5016827;28;92732;-81
2023/12/23 03:43:26;;;;;;;6.10;1.42;;;;;;;;;;4996481;28;92413;-81
2023/12/23 03:45:53;;;;;;;10.55;1.55;;;;;;;;;;4996427;28;94975;-81
2023/12/23 03:48:20;;;;;;;6.50;1.40;;;;;;;;;;5019803;28;93272;-82
2023/12/23 03:50:46;;;;;;;5.50;1.20;;;;;;;;;;5021584;28;91666;-82
2023/12/23 03:53:14;;;;;;;5.53;1.40;;;;;;;;;;5022383;27;92158;-82
2023/12/23 03:55:41;;;;;;;5.78;1.30;;;;;;;;;;5023017;28;94427;-82
2023/12/23 03:58:07;;;;;;;6.30;1.35;;;;;;;;;;5020648;28;94568;-82
2023/12/23 04:00:34;;;;;;;8.70;1.70;;;;;;;;;;5020350;28;94576;-82
2023/12/23 04:03:01;;;;;;;5.30;1.20;;;;;;;;;;5038541;27;92188;-82
2023/12/23 04:05:27;;;;;;;5.03;1.13;;;;;;;;;;5037984;27;94769;-82
2023/12/23 04:07:54;;;;;;;5.53;1.55;;;;;;;;;;5022204;27;93102;-81
2023/12/23 04:10:20;;;;;;;4.88;1.50;;;;;;;;;;5020579;27;92244;-82
2023/12/23 04:12:47;;;;;;;4.38;1.40;;;;;;;;;;5037522;28;94513;-82
2023/12/23 04:15:14;;;;;;;6.45;1.20;;;;;;;;;;5020098;28;94278;-82
2023/12/23 04:17:42;;;;;;;4.78;1.30;;;;;;;;;;5024011;28;92713;-81
2023/12/23 04:20:09;;;;;;;5.05;1.20;;;;;;;;;;5019366;28;94802;-82
2023/12/23 04:22:35;;;;;;;5.55;1.20;;;;;;;;;;5015692;28;94493;-82
2023/12/23 04:25:03;;;;;;;4.95;1.25;;;;;;;;;;5003946;28;97607;-81
2023/12/23 04:27:30;;;;;;;5.28;1.23;;;;;;;;;;5004492;28;93122;-81
2023/12/23 04:29:56;;;;;;;6.72;1.48;;;;;;;;;;5003623;28;92198;-81
2023/12/23 04:32:25;;;;;;;3.92;1.40;;;;;;;;;;5022880;27;93350;-80
2023/12/23 04:34:54;;;;;;;4.93;1.15;;;;;;;;;;5023271;28;100519;-81
2023/12/23 04:37:20;;;;;;;4.35;1.00;;;;;;;;;;5023777;27;92299;-81
2023/12/23 04:39:47;;;;;;;5.18;1.10;;;;;;;;;;5011638;28;95127;-81
2023/12/23 04:42:14;;;;;;;5.32;1.30;;;;;;;;;;5023811;27;92570;-82
2023/12/23 04:44:40;;;;;;;7.05;1.35;;;;;;;;;;5006442;28;94840;-82
2023/12/23 04:47:07;;;;;;;5.65;1.40;;;;;;;;;;5013404;28;95517;-81
2023/12/23 04:49:34;;;;;;;6.68;1.20;;;;;;;;;;4986718;28;92525;-81
2023/12/23 04:52:00;;;;;;;6.82;1.25;;;;;;;;;;4983787;28;94950;-81
2023/12/23 04:54:27;;;;;;;6.10;1.27;;;;;;;;;;5001989;28;101635;-80
2023/12/23 04:56:54;;;;;;;6.15;1.33;;;;;;;;;;5003473;28;92147;-82
2023/12/23 04:59:20;;;;;;;5.93;1.20;;;;;;;;;;5002396;28;94964;-79
2023/12/23 05:01:47;;;;;;;8.80;1.40;;;;;;;;;;5000615;28;95057;-81
2023/12/23 05:04:13;;;;;;;6.63;1.20;;;;;;;;;;5004447;28;94410;-80
2023/12/23 05:06:40;;;;;;;11.73;1.60;;;;;;;;;;5001217;28;94868;-80
2023/12/23 05:09:07;;;;;;;4.05;1.05;;;;;;;;;;5002442;28;92444;-80
2023/12/23 05:11:33;;;;;;;5.72;1.33;;;;;;;;;;5001916;28;94585;-81
2023/12/23 05:14:00;;;;;;;6.63;1.15;;;;;;;;;;5003961;28;93683;-80
2023/12/23 05:16:26;;;;;;;6.32;1.40;;;;;;;;;;5002033;28;92164;-81
2023/12/23 05:18:53;;;;;;;6.18;1.23;;;;;;;;;;5003260;28;95065;-81
2023/12/23 05:21:21;;;;;;;6.40;1.40;;;;;;;;;;5004054;28;93070;-81
2023/12/23 05:23:48;;;;;;;3.95;1.13;;;;;;;;;;4989222;28;92344;-80
2023/12/23 05:26:19;;;;;;;5.10;1.40;;;;;;;;;;5001807;27;93611;-80
2023/12/23 05:28:46;;;;;;;4.97;1.20;;;;;;;;;;5036807;28;91358;-80
2023/12/23 05:31:12;;;;;;;5.85;1.42;;;;;;;;;;4995598;28;94541;-80
2023/12/23 05:33:39;;;;;;;4.70;1.02;;;;;;;;;;4983828;28;93194;-81
2023/12/23 05:36:06;;;;;;;7.20;1.20;;;;;;;;;;4980668;28;94477;-81
2023/12/23 05:38:33;;;;;;;4.65;1.20;;;;;;;;;;5002686;28;96884;-81
2023/12/23 05:40:59;;;;;;;4.00;1.00;;;;;;;;;;5003760;28;92663;-80
2023/12/23 05:43:26;;;;;;;4.30;1.10;;;;;;;;;;5005731;28;92029;-81
2023/12/23 05:45:53;;;;;;;3.90;1.00;;;;;;;;;;5002472;28;92822;-81
2023/12/23 05:48:19;;;;;;;5.45;1.15;;;;;;;;;;5002112;28;92372;-81
2023/12/23 05:50:46;;;;;;;6.13;1.13;;;;;;;;;;5025355;28;93235;-80
2023/12/23 05:53:12;;;;;;;5.55;0.95;;;;;;;;;;5015192;28;92385;-81
2023/12/23 05:55:39;;;;;;;4.88;1.05;;;;;;;;;;5018152;28;92756;-80
2023/12/23 05:58:06;;;;;;;3.17;1.00;;;;;;;;;;5007510;28;92729;-81
2023/12/23 06:00:32;;;;;;;6.45;1.23;;;;;;;;;;5000383;28;96664;-80
2023/12/23 06:02:59;;;;;;;4.72;1.20;;;;;;;;;;4994493;28;92562;-80
2023/12/23 06:05:25;;;;;;;4.47;1.00;;;;;;;;;;5013670;28;92554;-80
2023/12/23 06:07:52;;;;;;;5.30;1.10;;;;;;;;;;5018124;28;92248;-80
2023/12/23 06:10:19;;;;;;;3.78;0.90;;;;;;;;;;5021792;28;94878;-81
2023/12/23 06:12:46;;;;;;;3.40;0.82;;;;;;;;;;5022843;28;93025;-81
2023/12/23 06:15:13;;;;;;;5.43;1.20;;;;;;;;;;5024125;28;92092;-81
2023/12/23 06:17:39;;;;;;;4.45;0.90;;;;;;;;;;5009868;28;92771;-81
2023/12/23 06:20:06;;;;;;;3.70;1.00;;;;;;;;;;5000225;28;92860;-81
2023/12/23 06:22:32;;;;;;;3.45;1.10;;;;;;;;;;5003130;28;92534;-81
2023/12/23 06:24:59;;;;;;;2.53;1.08;;;;;;;;;;5002389;28;94673;-81
2023/12/23 06:27:25;;;;;;;4.60;1.10;;;;;;;;;;5006369;28;93387;-81
2023/12/23 06:29:52;;;;;;;4.43;0.98;;;;;;;;;;5001721;28;95211;-81
2023/12/23 06:32:19;;;;;;;2.63;1.00;;;;;;;;;;5017214;28;94789;-81
2023/12/23 06:34:46;;;;;;;5.10;1.23;;;;;;;;;;5008919;28;92306;-82
2023/12/23 06:37:12;;;;;;;4.70;1.20;;;;;;;;;;4995981;28;95316;-82
2023/12/23 06:39:39;;;;;;;3.30;1.10;;;;;;;;;;5003116;28;93239;-82
2023/12/23 06:42:06;;;;;;;5.90;1.20;;;;;;;;;;5002039;27;92200;-83
2023/12/23 06:44:32;;;;;;;3.83;1.00;;;;;;;;;;5003292;27;92386;-81
2023/12/23 06:46:59;;;;;;;3.75;1.05;;;;;;;;;;5000407;28;93579;-81
2023/12/23 06:49:27;;;;;;;3.88;0.90;;;;;;;;;;5002802;28;94719;-81
2023/12/23 06:51:54;;;;;;;4.43;1.00;;;;;;;;;;5002172;28;93136;-81
2023/12/23 06:54:21;;;;;;;5.30;1.33;;;;;;;;;;5000709;28;92322;-82
2023/12/23 06:56:47;;;;;;;5.65;1.30;;;;;;;;;;5003274;28;95238;-83
2023/12/23 06:59:14;;;;;;;6.07;1.30;;;;;;;;;;5001537;28;92701;-82
2023/12/23 07:01:40;;;;;;;4.65;1.20;;;;;;;;;;5012110;28;92396;-82
2023/12/23 07:04:08;;;;;;;4.40;0.90;;;;;;;;;;5000937;28;92691;-81
2023/12/23 07:06:35;;;;;;;5.35;1.10;;;;;;;;;;5003740;28;91945;-82
2023/12/23 07:09:02;;;;;;;6.57;1.05;;;;;;;;;;5025371;28;92089;-81
2023/12/23 07:11:32;;;;;;;4.63;1.20;;;;;;;;;;5003469;28;94831;-81
2023/12/23 07:13:59;;;;;;;4.20;1.05;;;;;;;;;;5000045;28;94546;-82
2023/12/23 07:16:25;;;;;;;3.95;1.00;;;;;;;;;;5017585;28;96969;-82
2023/12/23 07:18:52;;;;;;;4.47;1.25;;;;;;;;;;5001761;28;99048;-81
2023/12/23 07:21:19;;;;;;;6.47;1.38;;;;;;;;;;5014088;28;92161;-80
2023/12/23 07:23:45;;;;;;;5.10;1.15;;;;;;;;;;5008746;28;92354;-81
2023/12/23 07:26:13;;;;;;;5.88;1.10;;;;;;;;;;5017126;28;93151;-84
2023/12/23 07:28:40;;;;;;;5.00;1.30;;;;;;;;;;5023218;28;92444;-82
2023/12/23 07:31:06;;;;;;;3.25;1.02;;;;;;;;;;5016034;28;92343;-81
2023/12/23 07:33:33;;;;;;;4.78;1.27;;;;;;;;;;5003286;28;92265;-81
2023/12/23 07:36:00;;;;;;;7.03;1.23;;;;;;;;;;5019022;28;92332;-80
2023/12/23 07:38:26;;;;;;;2.33;0.90;;;;;;;;;;4998945;28;97495;-80
2023/12/23 07:40:54;;;;;;;3.85;1.10;;;;;;;;;;5001217;28;92308;-82
2023/12/23 07:43:20;;;;;;;3.83;1.02;;;;;;;;;;5002224;28;92452;-82
2023/12/23 07:45:48;;;;;;;4.68;1.10;;;;;;;;;;5001361;28;93893;-82
2023/12/23 07:48:15;;;;;;;1.77;0.80;;;;;;;;;;5000984;28;92579;-84
2023/12/23 07:50:42;;;;;;;4.60;0.95;;;;;;;;;;5001016;28;92394;-82
2023/12/23 07:53:08;;;;;;;6.10;1.13;;;;;;;;;;5003823;28;93623;-81
2023/12/23 07:55:35;;;;;;;3.53;0.95;;;;;;;;;;4984489;28;94636;-80
2023/12/23 07:58:01;;;;;;;3.40;1.00;;;;;;;;;;4984162;28;93957;-81
2023/12/23 08:00:28;;;;;;;6.60;1.40;;;;;;;;;;4980960;28;93581;-81
2023/12/23 08:02:55;;;;;;;2.85;1.00;;;;;;;;;;4996403;28;95100;-81
2023/12/23 08:05:21;;;;;;;7.95;1.10;;;;;;;;;;4985392;28;95268;-80
2023/12/23 08:07:48;;;;;;;4.18;1.00;;;;;;;;;;4980650;28;92060;-81
2023/12/23 08:10:16;;;;;;;4.35;1.20;;;;;;;;;;4996682;28;95282;-81
2023/12/23 08:12:44;;;;;;;6.18;1.15;;;;;;;;;;5006436;28;93669;-82
2023/12/23 08:15:10;;;;;;;5.13;1.00;;;;;;;;;;5022377;28;92249;-80
2023/12/23 08:17:37;;;;;;;5.93;1.20;;;;;;;;;;5016087;28;99061;-82
2023/12/23 08:20:05;;;;;;;3.17;1.00;;;;;;;;;;5020738;27;91583;-81
2023/12/23 08:22:31;;;;;;;4.38;0.93;;;;;;;;;;4983755;28;94242;-81
2023/12/23 08:24:58;;;;;;;5.25;1.10;;;;;;;;;;4996796;28;93271;-81
2023/12/23 08:27:24;;;;;;;4.97;1.17;;;;;;;;;;4991462;28;94648;-81
2023/12/23 08:29:51;;;;;;;2.80;0.95;;;;;;;;;;5001144;28;97682;-81
2023/12/23 08:32:18;;;;;;;3.20;0.90;;;;;;;;;;5022267;28;92887;-79
2023/12/23 08:34:45;;;;;;;4.53;1.27;;;;;;;;;;5000354;28;92439;-80
2023/12/23 08:37:12;;;;;;;3.33;0.90;;;;;;;;;;5019362;27;94712;-80
2023/12/23 08:39:38;;;;;;;7.10;1.33;;;;;;;;;;4990944;28;92084;-80
2023/12/23 08:42:05;;;;;;;10.07;1.45;;;;;;;;;;4980966;28;92468;-80
2023/12/23 08:44:32;;;;;;;10.15;1.23;;;;;;;;;;4981169;28;92015;-79
2023/12/23 08:46:59;;;;;;;5.55;1.10;;;;;;;;;;4987662;28;92513;-80
2023/12/23 08:49:25;;;;;;;4.57;1.10;;;;;;;;;;5000591;28;93311;-80
2023/12/23 08:51:52;;;;;;;9.23;1.55;;;;;;;;;;4999539;28;95131;-79
2023/12/23 08:54:19;;;;;;;8.07;1.10;;;;;;;;;;4993536;28;92084;-79
2023/12/23 08:56:45;;;;;;;4.75;1.10;;;;;;;;;;4998241;28;92423;-80
2023/12/23 08:59:12;;;;;;;6.80;1.40;;;;;;;;;;5002000;27;92775;-80
2023/12/23 09:01:38;;;;;;;4.10;1.17;;;;;;;;;;4998472;27;92376;-77
2023/12/23 09:04:05;;;;;;;5.20;0.98;;;;;;;;;;4997590;28;92695;-78
2023/12/23 09:06:31;;;;;;;5.88;1.17;;;;;;;;;;5016379;28;92102;-78
2023/12/23 09:08:58;;;;;;;4.57;1.00;;;;;;;;;;5011137;28;95210;-78
2023/12/23 09:11:25;;;;;;;8.25;1.40;;;;;;;;;;5002323;28;92924;-79
2023/12/23 09:13:54;;;;;;;4.63;1.20;;;;;;;;;;5001619;28;92277;-79
2023/12/23 09:16:20;;;;;;;6.03;1.30;;;;;;;;;;5001086;28;95002;-78
2023/12/23 09:18:47;;;;;;;5.05;0.95;;;;;;;;;;5017965;28;93506;-79
2023/12/23 09:21:13;;;;;;;6.45;1.00;;;;;;;;;;4988230;28;92430;-79
2023/12/23 09:23:40;;;;;;;4.82;1.10;;;;;;;;;;5001425;28;92694;-79
2023/12/23 09:26:06;;;;;;;2.80;0.88;;;;;;;;;;5000602;28;92345;-78
2023/12/23 09:28:33;;;;;;;4.88;1.00;;;;;;;;;;5003080;28;92463;-78
2023/12/23 09:31:00;;;;;;;4.95;1.10;;;;;;;;;;5002068;28;94377;-78
2023/12/23 09:33:27;;;;;;;4.03;1.02;;;;;;;;;;5002831;28;91369;-79
2023/12/23 09:35:54;;;;;;;6.53;1.08;;;;;;;;;;5017704;28;92507;-79
2023/12/23 09:38:20;;;;;;;4.10;1.05;;;;;;;;;;4997318;28;94565;-77
2023/12/23 09:40:47;;;;;;;3.30;1.00;;;;;;;;;;4985584;28;94522;-79
2023/12/23 09:43:14;;;;;;;2.42;0.90;;;;;;;;;;5001430;28;92738;-78
2023/12/23 09:45:41;;;;;;;4.40;1.10;;;;;;;;;;5015928;28;94440;-78
2023/12/23 09:48:08;;;;;;;4.88;1.00;;;;;;;;;;5004607;28;95035;-78
2023/12/23 09:50:34;;;;;;;3.17;0.90;;;;;;;;;;5022016;27;92703;-78
2023/12/23 09:53:02;;;;;;;4.22;1.10;;;;;;;;;;5014617;27;92243;-79
2023/12/23 09:55:30;;;;;;;4.43;1.30;;;;;;;;;;5014272;28;92642;-79
2023/12/23 09:57:57;;;;;;;6.32;1.20;;;;;;;;;;5037791;27;94388;-79
2023/12/23 10:00:24;;;;;;;3.83;1.13;;;;;;;;;;5000777;28;92548;-79
2023/12/23 10:02:51;;;;;;;2.97;0.98;;;;;;;;;;5003806;28;94079;-79
2023/12/23 10:05:18;;;;;;;4.28;1.08;;;;;;;;;;5017258;27;94830;-79
2023/12/23 10:07:45;;;;;;;3.10;1.00;;;;;;;;;;5038138;27;95517;-79
2023/12/23 10:10:12;;;;;;;3.75;1.13;;;;;;;;;;5049669;27;95467;-79
2023/12/23 10:12:38;;;;;;;3.40;1.08;;;;;;;;;;5008144;28;92530;-79
2023/12/23 10:15:05;;;;;;;2.38;0.88;;;;;;;;;;4993338;28;92921;-78
2023/12/23 10:17:32;;;;;;;2.35;1.00;;;;;;;;;;4987948;28;95460;-77
2023/12/23 10:19:58;;;;;;;;;;;;;;;;;;5016947;28;92187;-79
2023/12/23 10:22:26;;;;;;;2.58;0.80;;;;;;;;;;5023672;28;92341;-79
2023/12/23 10:24:52;;;;;;;3.83;1.13;;;;;;;;;;5024626;28;95201;-79
2023/12/23 10:27:20;;;;;;;2.42;0.95;;;;;;;;;;5022371;28;92416;-79
2023/12/23 10:29:48;;;;;;;2.38;0.90;;;;;;;;;;5018338;28;97436;-79
2023/12/23 10:32:18;;;;;;;4.07;0.93;;;;;;;;;;5000092;28;92244;-78
2023/12/23 10:34:47;;;;;;;3.60;1.00;;;;;;;;;;4996253;28;94855;-78
2023/12/23 10:37:13;;;;;;;3.25;0.90;;;;;;;;;;4992011;28;92873;-78
2023/12/23 10:39:45;;;;;;;3.13;0.90;;;;;;;;;;5011748;28;92248;-79
2023/12/23 10:42:13;;;;;;;2.65;0.88;;;;;;;;;;5001014;28;93760;-78
2023/12/23 10:44:41;;;;;;;3.55;1.10;;;;;;;;;;5000043;28;95642;-79
2023/12/23 10:47:08;;;;;;;3.03;0.90;;;;;;;;;;5003267;28;92251;-78
2023/12/23 10:49:35;;;;;;;3.67;0.90;;;;;;;;;;5014391;28;92522;-80
2023/12/23 10:52:03;;;;;;;3.95;0.90;;;;;;;;;;5005712;28;92170;-81
2023/12/23 10:54:31;;;;;;;3.58;1.00;;;;;;;;;;4999407;28;96797;-82
2023/12/23 10:56:58;;;;;;;3.72;1.00;;;;;;;;;;5009600;28;93103;-80
2023/12/23 10:59:24;;;;;;;3.53;1.00;;;;;;;;;;5020962;28;92493;-81
2023/12/23 11:01:52;;;;;;;5.00;1.00;;;;;;;;;;5000421;28;95413;-80
2023/12/23 11:04:19;;;;;;;;;;;;;;;;;;5020510;28;93570;-78
2023/12/23 11:06:46;;;;;;;5.25;1.02;;;;;;;;;;5021964;28;92109;-81
2023/12/23 11:09:14;;;;;;;3.42;0.82;;;;;;;;;;5024435;28;92579;-79
2023/12/23 11:11:41;;;;;;;3.67;1.00;;;;;;;;;;5021545;28;91533;-78
2023/12/23 11:14:08;;;;;;;5.82;1.33;;;;;;;;;;5021148;28;92187;-80
2023/12/23 11:16:37;;;;;;;6.75;1.17;;;;;;;;;;5021881;28;93342;-80
2023/12/23 11:19:04;;;;;;;10.40;1.27;;;;;;;;;;5019525;28;94473;-80
2023/12/23 11:21:34;;;;;;;7.38;1.20;;;;;;;;;;5020541;28;94860;-80
2023/12/23 11:24:02;;;;;;;6.57;1.30;;;;;;;;;;5019651;28;95296;-80
2023/12/23 11:26:35;;;;;;;6.40;1.20;;;;;;;;;;5020562;28;92352;-78
2023/12/23 11:29:04;;;;;;;9.98;1.40;;;;;;;;;;5006906;28;92812;-79
2023/12/23 11:31:31;;;;;;;4.00;1.10;;;;;;;;;;5004091;28;93011;-79
2023/12/23 11:33:59;;;;;;;5.30;1.00;;;;;;;;;;5017839;28;92951;-80
2023/12/23 11:36:25;;;;;;;;;;;;;;;;;;5004486;28;93175;-80
2023/12/23 11:38:52;;;;;;;4.50;1.10;;;;;;;;;;5011262;27;108261;-80
2023/12/23 11:41:19;;;;;;;;;;;;;;;;;;5011178;28;95080;-79
2023/12/23 11:43:46;;;;;;;4.63;0.95;;;;;;;;;;5018785;28;97935;-79
2023/12/23 11:46:14;;;;;;;5.43;1.10;;;;;;;;;;5020066;27;92619;-80
2023/12/23 11:48:40;;;;;;;3.78;0.93;;;;;;;;;;5013848;28;92605;-77
2023/12/23 11:51:07;;;;;;;4.38;1.25;;;;;;;;;;5011737;28;93039;-77
2023/12/23 11:53:34;;;;;;;5.30;1.00;;;;;;;;;;5019340;27;92526;-78
2023/12/23 11:56:01;;;;;;;4.97;1.10;;;;;;;;;;4982140;28;95072;-78
2023/12/23 11:58:30;;;;;;;6.20;1.20;;;;;;;;;;4995627;28;92488;-79
2023/12/23 12:00:56;;;;;;;6.57;1.10;;;;;;;;;;4980676;28;92238;-79
2023/12/23 12:03:24;;;;;;;4.93;1.00;;;;;;;;;;4979799;28;92933;-79
2023/12/23 12:06:00;;;;;;;4.65;1.02;;;;;;;;;;4980219;28;92234;-78
2023/12/23 12:08:28;;;;;;;5.68;0.90;;;;;;;;;;4977571;28;99561;-80
2023/12/23 12:10:57;;;;;;;;;;;;;;;;;;4995430;28;92624;-80
2023/12/23 12:13:28;;;;;;;3.65;0.98;;;;;;;;;;5005602;28;100632;-77
2023/12/23 12:15:54;;;;;;;4.55;1.05;;;;;;;;;;4998691;28;95690;-79
2023/12/23 12:18:21;;;;;;;3.85;1.08;;;;;;;;;;5001241;28;92935;-82
2023/12/23 12:20:48;;;;;;;5.68;0.90;;;;;;;;;;5020730;28;92904;-79
2023/12/23 12:23:15;;;;;;;4.35;0.90;;;;;;;;;;5019154;28;92765;-80
2023/12/23 12:25:51;;;;;;;6.13;1.00;;;;;;;;;;5005872;28;92322;-79
2023/12/23 12:28:18;;;;;;;5.82;1.33;;;;;;;;;;4999166;28;92375;-79
2023/12/23 12:30:44;;;;;;;;;;;;;;;;;;5020456;28;93203;-79
2023/12/23 12:33:11;;;;;;;4.60;1.00;;;;;;;;;;5014877;27;94558;-79
2023/12/23 12:35:39;;;;;;;7.60;1.33;;;;;;;;;;5000516;28;94760;-79
2023/12/23 12:38:07;;;;;;;6.25;1.30;;;;;;;;;;4998184;28;92367;-81
2023/12/23 12:40:45;;;;;;;4.93;1.10;;;;;;;;;;5000193;28;92917;-79
2023/12/23 12:43:12;;;;;;;9.10;1.30;;;;;;;;;;4998292;28;94947;-79
2023/12/23 12:45:40;;;;;;;8.70;1.30;;;;;;;;;;5003226;28;92685;-78
2023/12/23 12:48:09;;;;;;;6.88;1.40;;;;;;;;;;4985485;28;95255;-79
2023/12/23 12:50:39;;;;;;;5.30;1.10;;;;;;;;;;5001841;28;91744;-79
2023/12/23 12:53:06;;;;;;;10.93;1.25;;;;;;;;;;4999023;28;92303;-80
2023/12/23 12:55:32;;;;;;;11.15;1.60;;;;;;;;;;4983637;28;92526;-79
2023/12/23 12:57:59;;;;;;;11.75;1.52;;;;;;;;;;5000261;28;95260;-80
2023/12/23 13:00:26;;;;;;;11.35;1.45;;;;;;;;;;4997200;28;97761;-81
2023/12/23 13:02:53;;;;;;;;;;;;;;;;;;4983973;28;92692;-80
2023/12/23 13:05:21;;;;;;;10.10;1.40;;;;;;;;;;4999321;28;92338;-79
2023/12/23 13:07:50;;;;;;;10.02;1.58;;;;;;;;;;5001701;28;92820;-80
2023/12/23 13:10:17;;;;;;;12.27;1.80;;;;;;;;;;5000018;28;94366;-80
2023/12/23 13:12:44;;;;;;;10.82;1.23;;;;;;;;;;5003968;28;92385;-79
2023/12/23 13:15:10;;;;;;;9.98;1.65;;;;;;;;;;5001467;28;95130;-80
2023/12/23 13:17:37;;;;;;;8.15;1.33;;;;;;;;;;5001104;28;92838;-81
2023/12/23 13:20:05;;;;;;;9.55;1.35;;;;;;;;;;5003462;28;92047;-78
2023/12/23 13:22:32;;;;;;;9.05;1.30;;;;;;;;;;4999611;28;97693;-80
2023/12/23 13:24:59;;;;;;;10.65;1.30;;;;;;;;;;5001329;28;92313;-80
2023/12/23 13:27:25;;;;;;;9.40;1.33;;;;;;;;;;5001324;28;94547;-80
2023/12/23 13:29:52;;;;;;;8.60;1.17;;;;;;;;;;5002656;28;93839;-81
2023/12/23 13:32:18;;;;;;;9.35;1.38;;;;;;;;;;5001932;28;92869;-81
2023/12/23 13:34:47;;;;;;;12.77;1.65;;;;;;;;;;5001332;28;93251;-81
2023/12/23 13:37:15;;;;;;;9.52;1.25;;;;;;;;;;5003118;28;92869;-80
2023/12/23 13:39:41;;;;;;;8.77;1.30;;;;;;;;;;4991049;28;91496;-80
2023/12/23 13:42:08;;;;;;;9.15;1.30;;;;;;;;;;5004252;28;95239;-81
2023/12/23 13:44:35;;;;;;;8.20;1.27;;;;;;;;;;5001425;28;92339;-81
2023/12/23 13:47:03;;;;;;;10.57;1.30;;;;;;;;;;5000274;28;94678;-81
2023/12/23 13:49:30;;;;;;;10.35;1.30;;;;;;;;;;5000826;28;92770;-80
2023/12/23 13:51:57;;;;;;;8.65;1.15;;;;;;;;;;5001241;28;92218;-79
2023/12/23 13:54:24;;;;;;;8.90;1.20;;;;;;;;;;5002129;28;92267;-80
2023/12/23 13:56:50;;;;;;;6.05;1.00;;;;;;;;;;5000926;28;92623;-79
2023/12/23 13:59:17;;;;;;;7.85;1.50;;;;;;;;;;5002774;28;92172;-80
2023/12/23 14:01:44;;;;;;;7.53;1.30;;;;;;;;;;5005696;28;92690;-80
2023/12/23 14:04:10;;;;;;;9.25;1.33;;;;;;;;;;4997588;28;91842;-80
2023/12/23 14:06:37;;;;;;;7.90;1.40;;;;;;;;;;4985636;28;92265;-80
2023/12/23 14:09:05;;;;;;;8.15;1.23;;;;;;;;;;5008205;28;93097;-80
2023/12/23 14:11:31;;;;;;;7.13;1.20;;;;;;;;;;5019610;28;94906;-80
2023/12/23 14:13:58;;;;;;;6.57;1.10;;;;;;;;;;5021670;28;94749;-81
2023/12/23 14:16:26;;;;;;;5.57;1.00;;;;;;;;;;5022308;27;93222;-81
2023/12/23 14:18:52;;;;;;;7.15;1.10;;;;;;;;;;5020667;28;92029;-82
2023/12/23 14:21:19;;;;;;;7.70;1.30;;;;;;;;;;5022803;27;92312;-82
2023/12/23 14:23:45;;;;;;;6.13;1.20;;;;;;;;;;5011104;27;93161;-81
2023/12/23 14:26:12;;;;;;;3.13;0.95;;;;;;;;;;5012695;28;94761;-81
2023/12/23 14:28:39;;;;;;;4.60;1.10;;;;;;;;;;5007165;28;92822;-81
2023/12/23 14:31:05;;;;;;;5.97;1.10;;;;;;;;;;5013728;28;92314;-82
2023/12/23 14:33:32;;;;;;;6.25;1.20;;;;;;;;;;4996876;28;95241;-80
2023/12/23 14:35:59;;;;;;;5.72;1.17;;;;;;;;;;5016490;28;97780;-81
2023/12/23 14:38:28;;;;;;;10.05;1.40;;;;;;;;;;5000829;28;92822;-79
2023/12/23 14:40:55;;;;;;;4.40;1.00;;;;;;;;;;5001797;28;92889;-80
2023/12/23 14:43:22;;;;;;;5.03;1.13;;;;;;;;;;5002016;28;92449;-82